Spirit River, Canada
Current Conditions -  °F | °C
As of 6:00 AM on Thursday 30 Oct 2014 (Local Time) from CYQU Reporting Station
Moderate Fog Moderate Fog  
Wind Chill: 25°   Ceiling: 100
Heat Index: 30°   Visibility: 0.25mi
Dew Point: 30°   Wind: 5mph
Humidity: 100%   Direction: 90°E
Pressure: 30.05"   Gusts: NA
Location:  55.78°N, 118.83°W
Report Text: CYQU 301200Z 09004KT 1/4SM FZFG VV001 M01/M01 A3005 RMK FG8 SLP208
Loading
Personal Weather Stations






























Interactive Weather Map
Tropical Storm Tracking
New forecast layout! Learn more

10-Day Weather Forecast

Advertisements
Track Severe Weather on mobile